ADDS METAR Data INFO
IDs: Format: Raw Decoded Include TAF

Data at: 0859 UTC 20 Oct 2017

KESN 200856Z AUTO 00000KT 10SM CLR 11/10 A3019 RMK AO2 T01090098
KESN 200836Z AUTO 00000KT 10SM CLR 11/10 A3019 RMK AO2 T01110100
KESN 200816Z AUTO 00000KT 10SM CLR 11/10 A3019 RMK AO2 T01100100
KESN 200756Z AUTO 00000KT 10SM CLR 10/09 A3019 RMK AO2 T01040094
KESN 200736Z AUTO 00000KT 7SM CLR 11/10 A3019 RMK AO2 T01140104
KESN 200716Z AUTO 00000KT 7SM CLR 11/10 A3019 RMK AO2 T01090099
KESN 200656Z AUTO 00000KT 10SM CLR 11/10 A3019 RMK AO2 T01120102
KESN 200636Z AUTO 00000KT 10SM CLR 11/10 A3019 RMK AO2 T01110102
KESN 200616Z AUTO 00000KT 5SM BR CLR 11/10 A3019 RMK AO2 T01070098
KESN 200556Z AUTO 00000KT 3/4SM BR VV005 11/10 A3019 RMK AO2 T01100101 10153 20109 402170082
KESN 200536Z AUTO 00000KT 4SM BR CLR 11/10 A3019 RMK AO2 T01130104
KESN 200516Z AUTO 00000KT 4SM BR CLR 13/12 A3019 RMK AO2 T01300121
KESN 200456Z AUTO 00000KT 7SM CLR 12/11 A3019 RMK AO2 T01240113
KESN 200436Z AUTO 00000KT 10SM CLR 12/11 A3019 RMK AO2 T01210108
KESN 200416Z AUTO 00000KT 10SM CLR 12/11 A3019 RMK AO2 T01210109
KESN 200356Z AUTO 00000KT 10SM CLR 13/12 A3019 RMK AO2 T01300119
KESN 200336Z AUTO 00000KT 10SM CLR 13/12 A3020 RMK AO2 T01340122
KESN 200316Z AUTO 00000KT 10SM CLR 13/11 A3019 RMK AO2 T01270113
KESN 200256Z AUTO 00000KT 10SM CLR 13/11 A3019 RMK AO2 T01270114
KESN 192345Z 21004KT 10SM SKC 15/10 A3019
KESN 192245Z 21004KT 10SM SKC 17/10 A3019
KESN 192145Z 22003KT 10SM SKC 20/09 A3019
KESN 192050Z 23007KT 10SM SKC 21/08 A3020
KESN 191950Z 22008KT 10SM SKC 21/07 A3022
KESN 191845Z 22009KT 10SM SKC 22/08 A3024
KESN 191745Z 21010KT 10SM SKC 21/09 A3026
KESN 191650Z 21009KT 10SM SKC 20/09 A3029
KESN 191550Z 25008KT 10SM FEW250 20/09 A3031
KESN 191450Z 23009KT 10SM FEW250 19/11 A3032
KESN 191350Z 22006KT 10SM FEW250 17/13 A3033
KESN 191250Z 00000KT 10SM SCT250 13/11 A3032
KESN 191150Z 00000KT 10SM SCT250 09/08 A3032
KESN 191050Z 00000KT 10SM FEW250 08/08 A3031
KESN 190950Z 00000KT 10SM SKC 09/08 A3032
KESN 190935Z AUTO 18003KT 10SM CLR 08/07 A3031 RMK AO2 T00830073
KESN 190916Z AUTO 00000KT 10SM CLR 09/08 A3031 RMK AO2 T00900080
KESN 190856Z AUTO 00000KT 10SM CLR 09/08 A3032 RMK AO2 T00900080
KESN 190836Z AUTO 00000KT 10SM CLR 09/08 A3031 RMK AO2 T00900080
KESN 190816Z AUTO 00000KT 10SM CLR 09/08 A3031 RMK AO2 T00920079
KESN 190756Z AUTO 00000KT 10SM CLR 09/08 A3032 RMK AO2 T00910079
KESN 190736Z AUTO 00000KT 10SM CLR 10/08 A3032 RMK AO2 T00970084
KESN 190716Z AUTO 00000KT 10SM CLR 09/08 A3032 RMK AO2 T00940081
KESN 190656Z AUTO 00000KT 10SM CLR 09/08 A3033 RMK AO2 T00910078
KESN 190636Z AUTO 00000KT 10SM CLR 09/08 A3034 RMK AO2 T00910077
KESN 190616Z AUTO 00000KT 10SM CLR 09/08 A3034 RMK AO2 T00910075
KESN 190556Z AUTO 00000KT 10SM CLR 09/08 A3034 RMK AO2 T00930079 10140 20093 402100055
KESN 190536Z AUTO 00000KT 10SM CLR 10/08 A3034 RMK AO2 T00950080
KESN 190516Z AUTO 00000KT 10SM CLR 10/08 A3035 RMK AO2 T00960078
KESN 190456Z AUTO 00000KT 10SM CLR 10/08 A3035 RMK AO2 T01000077
KESN 190436Z AUTO 00000KT 10SM CLR 11/08 A3035 RMK AO2 T01050076
KESN 190416Z AUTO 00000KT 10SM CLR 10/08 A3035 RMK AO2 T00980075
KESN 190356Z AUTO 00000KT 10SM CLR 10/07 A3035 RMK AO2 T00980071
KESN 190336Z AUTO 00000KT 10SM CLR 11/07 A3036 RMK AO2 T01110073
KESN 190316Z AUTO 18003KT 10SM CLR 11/08 A3036 RMK AO2 T01080075
KESN 190256Z AUTO 00000KT 10SM CLR 11/07 A3036 RMK AO2 T01100072
KESN 190150Z 00000KT 10SM SKC 11/08 A3037
KESN 190050Z 00000KT 10SM SKC 13/08 A3036
KESN 182350Z 19006KT 10SM SKC 14/07 A3035
KESN 182250Z 24006KT 10SM SKC 16/07 A3035
KESN 182156Z 24006KT 10SM SKC 18/05 A3034